Detroit, Michigan
Traffic Map
Current Weather Conditions
Detroit, Michigan
Broken Clouds
Broken Clouds
79°
Feels Like: 81°
Wind Chill: 79° Ceiling: 17000
Heat Index: 81° Visibility: 15mi
Dew Point: 66° Wind: 17mph
Humidity: 65% Direction: 190° (S)
Pressure: 30.08in Gusts: 24mph
Raw Report DataCYQG 241700Z 19015G21KT 15SM SCT045 BKN170 BKN290 26/19 A3008 RMK SC3AC2CI2 SLP186 DENSITY ALT 1800FT
Traffic Incident Summary
Active as of:
Severity:
Category:
InformationThere was an issue retrieving the traffic information for this location. Please try a different location or try again shortly.
Advertisements
Track Severe Weather on mobile